createdAt,value
2022-10-18T03:58:59.282Z,0.00
2022-10-18T03:59:59.237Z,0.00
2022-10-18T04:00:59.236Z,0.00
2022-10-18T04:01:59.352Z,0.00
2022-10-18T04:02:59.277Z,0.00
2022-10-18T04:03:59.232Z,0.00
2022-10-18T04:04:59.235Z,0.00
2022-10-18T04:05:57.595Z,0.00
2022-10-18T04:06:57.592Z,0.00
2022-10-18T04:07:59.269Z,0.00
2022-10-18T04:08:59.261Z,0.00
2022-10-18T04:09:57.588Z,0.00
2022-10-18T04:10:57.573Z,0.00
2022-10-18T04:11:59.237Z,0.00
2022-10-18T04:12:59.261Z,0.00
2022-10-18T04:13:58.565Z,0.00
2022-10-18T04:14:59.271Z,0.00
2022-10-18T04:15:58.565Z,0.00
2022-10-18T04:16:57.542Z,0.00
2022-10-18T04:17:59.272Z,0.00
2022-10-18T04:18:57.574Z,0.00
2022-10-18T04:19:59.259Z,0.00
2022-10-18T04:20:57.531Z,0.00
2022-10-18T04:21:59.245Z,0.00
2022-10-18T04:22:59.261Z,0.00
2022-10-18T04:23:59.250Z,0.00
2022-10-18T04:24:57.522Z,0.00
2022-10-18T04:25:59.259Z,0.00
2022-10-18T04:26:59.260Z,0.00
2022-10-18T04:27:59.295Z,0.00
2022-10-18T04:28:59.298Z,0.00
2022-10-18T04:29:59.255Z,0.00
2022-10-18T04:30:59.283Z,0.00
2022-10-18T04:31:59.255Z,0.00
2022-10-18T04:32:59.283Z,0.00
2022-10-18T04:33:59.258Z,0.00
2022-10-18T04:34:57.489Z,0.00
2022-10-18T04:35:59.266Z,0.00
2022-10-18T04:36:57.481Z,0.00
2022-10-18T04:37:59.278Z,0.00
2022-10-18T04:38:58.470Z,0.00
2022-10-18T04:39:59.287Z,0.00
2022-10-18T04:40:59.265Z,0.00
2022-10-18T04:41:59.271Z,0.00
2022-10-18T04:42:59.274Z,0.00
2022-10-18T04:43:59.283Z,0.00
2022-10-18T04:44:59.324Z,0.00
2022-10-18T04:45:59.265Z,0.00
2022-10-18T04:46:59.275Z,0.00
2022-10-18T04:47:59.315Z,0.00
2022-10-18T04:48:58.780Z,0.00
2022-10-18T04:49:59.291Z,0.00
2022-10-18T04:50:59.285Z,0.00
2022-10-18T04:51:59.274Z,0.00
2022-10-18T04:52:59.297Z,0.00
2022-10-18T04:53:59.285Z,0.00
2022-10-18T04:54:59.288Z,0.00
2022-10-18T04:55:59.291Z,0.00
2022-10-18T04:56:59.295Z,0.00
2022-10-18T04:57:59.286Z,0.00
2022-10-18T04:58:59.293Z,0.00
2022-10-18T04:59:58.811Z,0.00
2022-10-18T05:00:59.302Z,0.00
2022-10-18T05:01:59.424Z,0.00
2022-10-18T05:02:57.411Z,0.00
2022-10-18T05:03:57.418Z,0.00
2022-10-18T05:04:59.307Z,0.00
2022-10-18T05:06:01.883Z,0.00
2022-10-18T05:06:57.381Z,0.00
2022-10-18T05:07:57.387Z,0.00
2022-10-18T05:08:58.798Z,0.00
2022-10-18T05:09:57.378Z,0.00
2022-10-18T05:10:59.384Z,0.00
2022-10-18T05:11:59.292Z,0.00
2022-10-18T05:12:59.301Z,0.00
2022-10-18T05:13:59.303Z,0.00
2022-10-18T05:14:59.323Z,0.00
2022-10-18T05:15:59.310Z,0.00
2022-10-18T05:16:59.296Z,0.00
2022-10-18T05:17:59.306Z,0.00
2022-10-18T05:18:59.307Z,0.00
2022-10-18T05:19:59.330Z,0.00
2022-10-18T05:20:59.309Z,0.00
2022-10-18T05:21:59.295Z,0.00
2022-10-18T05:22:59.305Z,0.00
2022-10-18T05:23:59.314Z,0.00
2022-10-18T05:24:57.336Z,0.00
2022-10-18T05:25:57.380Z,0.00
2022-10-18T05:26:57.334Z,0.00
2022-10-18T05:27:57.352Z,0.00
2022-10-18T05:28:58.831Z,0.00
2022-10-18T05:29:59.976Z,0.00
2022-10-18T05:30:58.364Z,0.00
2022-10-18T05:31:58.819Z,0.00
2022-10-18T05:32:58.826Z,0.00
2022-10-18T05:33:57.310Z,0.00
2022-10-18T05:34:57.301Z,0.00
2022-10-18T05:35:58.819Z,0.00
2022-10-18T05:36:57.302Z,0.00
2022-10-18T05:37:57.295Z,0.00
2022-10-18T05:39:00.951Z,4.00
2022-10-18T05:39:57.293Z,4.00
2022-10-18T05:40:58.332Z,4.00
2022-10-18T05:41:57.283Z,4.00
2022-10-18T05:42:58.836Z,0.00
2022-10-18T05:43:57.275Z,4.00
2022-10-18T05:44:58.828Z,4.00
2022-10-18T05:45:58.850Z,4.00
2022-10-18T05:46:57.276Z,8.00
2022-10-18T05:47:58.836Z,8.00
2022-10-18T05:48:57.265Z,4.00
2022-10-18T05:49:58.869Z,8.00
2022-10-18T05:50:58.834Z,8.00
2022-10-18T05:51:57.271Z,12.00
2022-10-18T05:53:06.944Z,8.00
2022-10-18T05:53:58.825Z,12.00
2022-10-18T05:54:58.828Z,16.00
2022-10-18T05:55:57.240Z,16.00
2022-10-18T05:56:57.241Z,16.00
2022-10-18T05:57:58.846Z,20.00
2022-10-18T05:58:57.245Z,20.00
2022-10-18T05:59:57.227Z,20.00
2022-10-18T06:00:57.234Z,20.00
2022-10-18T06:01:57.223Z,20.00
2022-10-18T06:03:00.337Z,20.00
2022-10-18T06:03:57.215Z,28.00
2022-10-18T06:04:57.226Z,28.00
2022-10-18T06:05:57.236Z,36.00
2022-10-18T06:06:57.205Z,36.00
2022-10-18T06:07:58.848Z,48.00
2022-10-18T06:08:58.212Z,52.00
2022-10-18T06:09:57.219Z,56.00
2022-10-18T06:10:58.882Z,60.00
2022-10-18T06:11:58.864Z,64.00
2022-10-18T06:12:57.191Z,64.00
2022-10-18T06:13:58.843Z,64.00
2022-10-18T06:14:58.854Z,68.00
2022-10-18T06:15:58.838Z,76.00
2022-10-18T06:16:58.861Z,76.00
2022-10-18T06:17:58.871Z,84.00
2022-10-18T06:18:58.855Z,84.00
2022-10-18T06:19:58.844Z,88.00
2022-10-18T06:20:58.849Z,96.00
2022-10-18T06:21:58.872Z,104.00
2022-10-18T06:22:58.851Z,112.00
2022-10-18T06:23:58.865Z,120.00
2022-10-18T06:24:58.856Z,128.00
2022-10-18T06:25:58.850Z,136.00
2022-10-18T06:26:57.201Z,136.00
2022-10-18T06:27:57.156Z,136.00
2022-10-18T06:28:58.989Z,128.00
2022-10-18T06:29:57.146Z,124.00
2022-10-18T06:30:57.154Z,128.00
2022-10-18T06:31:57.159Z,136.00
2022-10-18T06:32:58.893Z,144.00
2022-10-18T06:33:57.137Z,148.00
2022-10-18T06:34:57.127Z,160.00
2022-10-18T06:35:57.127Z,172.00
2022-10-18T06:36:58.865Z,184.00
2022-10-18T06:37:57.137Z,204.00
2022-10-18T06:38:58.902Z,220.00
2022-10-18T06:39:57.128Z,232.00
2022-10-18T06:40:57.115Z,236.00
2022-10-18T06:41:57.110Z,240.00
2022-10-18T06:43:05.866Z,244.00
2022-10-18T06:43:57.120Z,244.00
2022-10-18T06:44:58.876Z,240.00
2022-10-18T06:45:58.878Z,232.00
2022-10-18T06:46:58.880Z,224.00
2022-10-18T06:47:59.102Z,220.00
2022-10-18T06:48:58.889Z,224.00
2022-10-18T06:49:58.873Z,244.00
2022-10-18T06:50:58.886Z,276.00
2022-10-18T06:51:58.887Z,316.00
2022-10-18T06:52:58.881Z,344.00
2022-10-18T06:54:16.920Z,364.00
2022-10-18T06:54:58.906Z,368.00
2022-10-18T06:55:58.872Z,376.00
2022-10-18T06:56:58.902Z,384.00
2022-10-18T06:57:57.087Z,408.00
2022-10-18T06:59:58.946Z,464.00
2022-10-18T07:00:58.909Z,484.00
2022-10-18T07:01:58.935Z,488.00
2022-10-18T07:02:58.956Z,492.00
2022-10-18T07:03:58.887Z,484.00
2022-10-18T07:04:58.395Z,468.00
2022-10-18T07:05:58.903Z,472.00
2022-10-18T07:06:58.897Z,480.00
2022-10-18T07:07:57.047Z,496.00
2022-10-18T07:08:57.121Z,520.00
2022-10-18T07:09:57.062Z,528.00
2022-10-18T07:10:58.918Z,536.00
2022-10-18T07:11:57.021Z,552.00
2022-10-18T07:13:13.558Z,572.00
2022-10-18T07:13:58.035Z,592.00
2022-10-18T07:14:57.024Z,596.00
2022-10-18T07:15:59.905Z,600.00
2022-10-18T07:16:57.012Z,600.00
2022-10-18T07:17:58.893Z,600.00
2022-10-18T07:18:58.421Z,592.00
2022-10-18T07:19:57.011Z,600.00
2022-10-18T07:20:58.916Z,600.00
2022-10-18T07:21:57.016Z,600.00
2022-10-18T07:22:58.914Z,604.00
2022-10-18T07:23:56.987Z,600.00
2022-10-18T07:24:58.922Z,596.00
2022-10-18T07:25:58.924Z,596.00
2022-10-18T07:26:58.918Z,604.00
2022-10-18T07:27:58.930Z,604.00
2022-10-18T07:28:59.078Z,608.00
2022-10-18T07:29:58.906Z,608.00
2022-10-18T07:31:03.588Z,608.00
2022-10-18T07:31:58.953Z,620.00
2022-10-18T07:32:58.906Z,624.00
2022-10-18T07:33:58.935Z,628.00
2022-10-18T07:34:58.972Z,632.00
2022-10-18T07:35:58.970Z,640.00
2022-10-18T07:36:58.930Z,640.00
2022-10-18T07:37:58.920Z,628.00
2022-10-18T07:38:58.922Z,616.00
2022-10-18T07:39:58.935Z,604.00
2022-10-18T07:40:58.957Z,584.00
2022-10-18T07:41:58.936Z,564.00
2022-10-18T07:43:02.721Z,556.00
2022-10-18T07:43:58.922Z,564.00
2022-10-18T07:44:58.919Z,592.00
2022-10-18T07:45:58.935Z,624.00
2022-10-18T07:46:56.934Z,652.00
2022-10-18T07:47:58.920Z,664.00
2022-10-18T07:48:57.936Z,676.00
2022-10-18T07:49:58.427Z,672.00
2022-10-18T07:50:58.447Z,676.00
2022-10-18T07:51:58.463Z,672.00
2022-10-18T07:52:58.498Z,656.00
2022-10-18T07:53:58.445Z,660.00
2022-10-18T07:54:58.424Z,660.00
2022-10-18T07:55:58.439Z,656.00
2022-10-18T07:56:58.464Z,652.00
2022-10-18T07:57:58.430Z,652.00
2022-10-18T07:58:58.446Z,664.00
2022-10-18T07:59:58.523Z,672.00
2022-10-18T08:00:58.450Z,672.00
2022-10-18T08:01:58.503Z,680.00
2022-10-18T08:02:58.433Z,696.00
2022-10-18T08:04:01.053Z,724.00
2022-10-18T08:04:58.452Z,736.00
2022-10-18T08:05:58.435Z,740.00
2022-10-18T08:06:58.438Z,748.00
2022-10-18T08:07:58.439Z,788.00
2022-10-18T08:08:58.444Z,872.00
2022-10-18T08:09:58.463Z,1032.00
2022-10-18T08:10:58.456Z,1496.00
2022-10-18T08:11:58.451Z,1768.00
2022-10-18T08:12:58.462Z,2000.00
2022-10-18T08:13:58.461Z,2120.00
2022-10-18T08:14:58.478Z,2088.00
2022-10-18T08:15:58.494Z,1844.00
2022-10-18T08:16:58.439Z,1964.00
2022-10-18T08:17:56.918Z,1672.00
2022-10-18T08:18:56.857Z,1872.00
2022-10-18T08:20:11.451Z,2256.00
2022-10-18T08:20:58.453Z,2384.00
2022-10-18T08:21:58.480Z,2592.00
2022-10-18T08:23:00.363Z,2756.00
2022-10-18T08:23:58.494Z,3260.00
2022-10-18T08:24:58.454Z,3300.00
2022-10-18T08:25:58.464Z,2964.00
2022-10-18T08:26:58.490Z,2468.00
2022-10-18T08:27:58.457Z,2208.00
2022-10-18T08:29:17.788Z,2352.00
2022-10-18T08:29:58.567Z,2384.00
2022-10-18T08:30:58.465Z,2564.00
2022-10-18T08:31:58.457Z,2544.00
2022-10-18T08:32:58.469Z,2428.00
2022-10-18T08:33:58.482Z,2052.00
2022-10-18T08:34:58.460Z,1828.00
2022-10-18T08:35:58.560Z,1576.00
2022-10-18T08:36:58.464Z,1616.00
2022-10-18T08:37:58.502Z,1368.00
2022-10-18T08:38:58.511Z,1180.00
2022-10-18T08:39:58.489Z,1160.00
2022-10-18T08:40:58.474Z,1064.00
2022-10-18T08:41:56.811Z,1012.00
2022-10-18T08:42:56.803Z,808.00
2022-10-18T08:44:00.202Z,768.00
2022-10-18T08:44:56.806Z,716.00
2022-10-18T08:45:56.803Z,704.00
2022-10-18T08:46:56.791Z,580.00
2022-10-18T08:47:58.475Z,524.00
2022-10-18T08:48:56.816Z,524.00
2022-10-18T08:49:58.494Z,564.00
2022-10-18T08:50:56.790Z,536.00
2022-10-18T08:51:58.491Z,584.00
2022-10-18T08:52:56.797Z,600.00
2022-10-18T08:53:58.477Z,736.00
2022-10-18T08:54:56.780Z,812.00
2022-10-18T08:55:58.488Z,836.00
2022-10-18T08:56:58.494Z,1040.00
2022-10-18T08:57:56.775Z,1112.00
2022-10-18T08:58:58.536Z,1116.00
2022-10-18T08:59:58.531Z,1260.00
2022-10-18T09:00:58.484Z,1216.00
2022-10-18T09:01:58.496Z,1168.00
2022-10-18T09:02:58.523Z,864.00
2022-10-18T09:03:58.486Z,832.00
2022-10-18T09:04:58.486Z,696.00
2022-10-18T09:05:58.500Z,680.00
2022-10-18T09:06:58.500Z,616.00
2022-10-18T09:07:58.499Z,560.00
2022-10-18T09:08:58.500Z,456.00
2022-10-18T09:09:58.492Z,464.00
2022-10-18T09:12:01.862Z,584.00
2022-10-18T09:12:58.523Z,656.00
2022-10-18T09:13:57.760Z,672.00
2022-10-18T09:14:56.755Z,780.00
2022-10-18T09:15:58.547Z,764.00
2022-10-18T09:16:56.754Z,868.00
2022-10-18T09:17:56.748Z,1280.00
2022-10-18T09:18:58.540Z,1132.00
2022-10-18T09:19:57.758Z,784.00
2022-10-18T09:20:58.517Z,1268.00
2022-10-18T09:21:56.725Z,1724.00
2022-10-18T09:22:58.500Z,1592.00
2022-10-18T09:23:58.524Z,1212.00
2022-10-18T09:24:58.520Z,1696.00
2022-10-18T09:25:58.515Z,1776.00
2022-10-18T09:26:58.504Z,1772.00
2022-10-18T09:27:58.524Z,1832.00
2022-10-18T09:28:58.630Z,1884.00
2022-10-18T09:29:58.512Z,2160.00
2022-10-18T09:30:59.597Z,2104.00
2022-10-18T09:31:58.531Z,1940.00
2022-10-18T09:32:58.540Z,1908.00
2022-10-18T09:33:58.525Z,2128.00
2022-10-18T09:34:58.514Z,2544.00
2022-10-18T09:35:58.518Z,2780.00
2022-10-18T09:36:58.044Z,2468.00
2022-10-18T09:37:57.709Z,2456.00
2022-10-18T09:38:59.879Z,2856.00
2022-10-18T09:39:56.701Z,2644.00
2022-10-18T09:40:56.702Z,2768.00
2022-10-18T09:41:58.558Z,2848.00
2022-10-18T09:42:56.690Z,2872.00
2022-10-18T09:43:56.684Z,2828.00
2022-10-18T09:44:56.689Z,2876.00
2022-10-18T09:45:56.680Z,2588.00
2022-10-18T09:46:56.676Z,2372.00
2022-10-18T09:47:58.562Z,2640.00
2022-10-18T09:48:56.707Z,2972.00
2022-10-18T09:49:56.679Z,2968.00
2022-10-18T09:50:56.672Z,2624.00
2022-10-18T09:51:58.551Z,2296.00
2022-10-18T09:52:58.040Z,2364.00
2022-10-18T09:53:58.561Z,2644.00
2022-10-18T09:54:58.555Z,3044.00
2022-10-18T09:55:58.526Z,3080.00
2022-10-18T09:56:58.534Z,3208.00
2022-10-18T09:57:59.054Z,2728.00
2022-10-18T09:58:56.671Z,2136.00
2022-10-18T09:59:58.559Z,2136.00
2022-10-18T10:00:56.657Z,3780.00
2022-10-18T10:01:58.549Z,3484.00
2022-10-18T10:13:02.428Z,3444.00
2022-10-18T10:14:02.498Z,3436.00
2022-10-18T10:15:02.393Z,3456.00
2022-10-18T10:16:02.407Z,3432.00
2022-10-18T10:17:02.428Z,3360.00
2022-10-18T10:18:02.432Z,3332.00
2022-10-18T10:19:03.406Z,3412.00
2022-10-18T10:20:02.401Z,3456.00
2022-10-18T10:21:02.420Z,3476.00
2022-10-18T10:22:02.411Z,3472.00
2022-10-18T10:23:02.407Z,3468.00
2022-10-18T10:24:02.434Z,3508.00
2022-10-18T10:25:02.404Z,3460.00
2022-10-18T10:26:02.411Z,3436.00
2022-10-18T10:27:02.405Z,3352.00
2022-10-18T10:28:02.414Z,3352.00
2022-10-18T10:29:02.577Z,3424.00
2022-10-18T10:30:06.718Z,3416.00
2022-10-18T10:31:02.422Z,3436.00
2022-10-18T10:32:00.807Z,3472.00
2022-10-18T10:33:00.803Z,3520.00
2022-10-18T10:34:02.431Z,3556.00
2022-10-18T10:35:02.425Z,3452.00
2022-10-18T10:36:00.789Z,3372.00
2022-10-18T10:37:02.447Z,3360.00
2022-10-18T10:38:02.449Z,3224.00
2022-10-18T10:39:01.944Z,3152.00
2022-10-18T10:40:17.323Z,2880.00
2022-10-18T10:41:00.809Z,2648.00
2022-10-18T10:42:00.807Z,2168.00
2022-10-18T10:43:13.040Z,2164.00
2022-10-18T10:44:02.448Z,2396.00
2022-10-18T10:45:00.812Z,2368.00
2022-10-18T10:46:02.434Z,2340.00
2022-10-18T10:47:00.806Z,2528.00
2022-10-18T10:48:02.441Z,2660.00
2022-10-18T10:49:27.849Z,2680.00
2022-10-18T10:50:02.430Z,2840.00
2022-10-18T10:51:01.823Z,2800.00
2022-10-18T10:52:08.856Z,2448.00
2022-10-18T10:53:02.446Z,2272.00
2022-10-18T10:54:00.816Z,2228.00
2022-10-18T10:55:16.988Z,2324.00
2022-10-18T10:56:00.936Z,2312.00
2022-10-18T10:57:00.849Z,2404.00
2022-10-18T10:58:02.471Z,2892.00
2022-10-18T10:59:02.497Z,2808.00
2022-10-18T11:00:02.457Z,2840.00
2022-10-18T11:01:02.489Z,2888.00
2022-10-18T11:02:02.447Z,2916.00
2022-10-18T11:03:11.046Z,2940.00
2022-10-18T11:04:01.847Z,2676.00
2022-10-18T11:05:00.818Z,2560.00
2022-10-18T11:06:01.096Z,3312.00
2022-10-18T11:07:00.839Z,3148.00
2022-10-18T11:08:02.459Z,3428.00
2022-10-18T11:09:02.456Z,3312.00
2022-10-18T11:10:02.465Z,3428.00
2022-10-18T11:11:01.974Z,3048.00
2022-10-18T11:12:02.478Z,3028.00
2022-10-18T11:13:02.497Z,3404.00
2022-10-18T11:14:24.308Z,3372.00
2022-10-18T11:15:00.825Z,3164.00
2022-10-18T11:16:00.842Z,3648.00
2022-10-18T11:17:05.613Z,4200.00
2022-10-18T11:18:02.475Z,4556.00
2022-10-18T11:19:02.519Z,4924.00
2022-10-18T11:20:00.833Z,4892.00
2022-10-18T11:21:02.466Z,4784.00
2022-10-18T11:22:02.481Z,4712.00
2022-10-18T11:23:02.478Z,4484.00
2022-10-18T11:24:02.475Z,4000.00
2022-10-18T11:25:02.486Z,3888.00
2022-10-18T11:26:01.842Z,4128.00
2022-10-18T11:27:02.481Z,3872.00
2022-10-18T11:28:02.496Z,4148.00
2022-10-18T11:29:02.519Z,4348.00
2022-10-18T11:30:02.485Z,5036.00
2022-10-18T11:31:02.469Z,5632.00
2022-10-18T11:32:02.589Z,5868.00
2022-10-18T11:33:02.489Z,6288.00
2022-10-18T11:34:10.466Z,6604.00
2022-10-18T11:35:02.527Z,6708.00
2022-10-18T11:36:03.942Z,6800.00
2022-10-18T11:37:27.611Z,6860.00
2022-10-18T11:38:00.933Z,6988.00
2022-10-18T11:39:02.012Z,7000.00
2022-10-18T11:40:00.867Z,7112.00
2022-10-18T11:41:00.870Z,7244.00
2022-10-18T11:42:02.006Z,7396.00
2022-10-18T11:43:00.876Z,7500.00
2022-10-18T11:44:03.318Z,7592.00
2022-10-18T11:45:00.886Z,7648.00
2022-10-18T11:46:02.522Z,7804.00
2022-10-18T11:47:02.489Z,7528.00
2022-10-18T11:48:02.567Z,7996.00
2022-10-18T11:49:02.506Z,8108.00
2022-10-18T11:50:02.488Z,7420.00
2022-10-18T11:51:02.512Z,7380.00
2022-10-18T11:52:08.345Z,8196.00
2022-10-18T11:53:02.500Z,8512.00
2022-10-18T11:54:02.524Z,8568.00
2022-10-18T11:55:02.509Z,8780.00
2022-10-18T11:56:02.513Z,8980.00
2022-10-18T11:57:00.911Z,8932.00
2022-10-18T11:58:02.571Z,9228.00
2022-10-18T11:59:02.507Z,9424.00
2022-10-18T12:00:02.502Z,9748.00
2022-10-18T12:01:02.541Z,9764.00
2022-10-18T12:02:02.521Z,9768.00
2022-10-18T12:03:02.029Z,9772.00
2022-10-18T12:04:02.578Z,9968.00
2022-10-18T12:05:22.710Z,10084.00
2022-10-18T12:06:02.537Z,10208.00
2022-10-18T12:07:02.524Z,10288.00
2022-10-18T12:08:02.508Z,10308.00
2022-10-18T12:09:02.523Z,10500.00
2022-10-18T12:10:02.043Z,10632.00
2022-10-18T12:11:05.868Z,10656.00
2022-10-18T12:12:00.980Z,10620.00
2022-10-18T12:13:00.979Z,10688.00
2022-10-18T12:14:02.542Z,10772.00
2022-10-18T12:15:00.994Z,10872.00
2022-10-18T12:16:02.544Z,11008.00
2022-10-18T12:17:28.057Z,11092.00
2022-10-18T12:18:01.084Z,11204.00
2022-10-18T12:19:01.022Z,11292.00
2022-10-18T12:20:01.030Z,11468.00
2022-10-18T12:21:01.023Z,11700.00
2022-10-18T12:22:02.539Z,12076.00
2022-10-18T12:23:01.048Z,12516.00
2022-10-18T12:24:03.079Z,12984.00
2022-10-18T12:25:01.055Z,13156.00
2022-10-18T12:26:03.034Z,13436.00
2022-10-18T12:27:03.057Z,13684.00
2022-10-18T12:28:02.147Z,13608.00
2022-10-18T12:29:03.120Z,13844.00
2022-10-18T12:30:02.094Z,13908.00
2022-10-18T12:31:03.050Z,14240.00
2022-10-18T12:32:03.052Z,14636.00
2022-10-18T12:33:03.682Z,15408.00
2022-10-18T12:34:03.050Z,16428.00
2022-10-18T12:35:03.090Z,16716.00
2022-10-18T12:36:03.079Z,16828.00
2022-10-18T12:37:01.159Z,26848.00
2022-10-18T12:38:03.092Z,44384.00
2022-10-18T12:39:01.153Z,51520.00
2022-10-18T12:40:14.384Z,51968.00
2022-10-18T12:41:02.152Z,55040.00
2022-10-18T12:42:03.066Z,56064.00
2022-10-18T12:43:01.166Z,54656.00
2022-10-18T12:44:01.169Z,52736.00
2022-10-18T12:45:03.054Z,54720.00
2022-10-18T12:46:02.188Z,53696.00
2022-10-18T12:47:03.088Z,51552.00
2022-10-18T12:48:01.214Z,36992.00
2022-10-18T12:49:03.119Z,23168.00
2022-10-18T12:50:03.071Z,22208.00
2022-10-18T12:51:03.096Z,27808.00
2022-10-18T12:52:03.064Z,43616.00
2022-10-18T12:53:03.096Z,48320.00
2022-10-18T12:54:03.071Z,49088.00
2022-10-18T12:55:03.111Z,53120.00
2022-10-18T12:56:03.070Z,54848.00
2022-10-18T12:57:03.126Z,56288.00
2022-10-18T12:58:03.092Z,57344.00
2022-10-18T12:59:03.112Z,58016.00
2022-10-18T13:00:03.092Z,58304.00
2022-10-18T13:01:03.207Z,58368.00
2022-10-18T13:02:03.096Z,58624.00
2022-10-18T13:03:03.082Z,58848.00
2022-10-18T13:04:03.109Z,56864.00
2022-10-18T13:05:03.181Z,54912.00
2022-10-18T13:06:06.607Z,56032.00
2022-10-18T13:07:03.166Z,57152.00
2022-10-18T13:08:01.349Z,55264.00
2022-10-18T13:09:03.148Z,54304.00
2022-10-18T13:10:03.113Z,54560.00
2022-10-18T13:11:01.355Z,55296.00
2022-10-18T13:12:02.127Z,56192.00
2022-10-18T13:13:12.183Z,57344.00
2022-10-18T13:14:02.635Z,58208.00
2022-10-18T13:15:12.567Z,57152.00
2022-10-18T13:16:01.383Z,57984.00
2022-10-18T13:17:03.115Z,57632.00
2022-10-18T13:18:01.412Z,57568.00
2022-10-18T13:19:03.118Z,57568.00
2022-10-18T13:20:24.517Z,56864.00
2022-10-18T13:21:03.099Z,55552.00
2022-10-18T13:22:03.105Z,54688.00
2022-10-18T13:23:02.599Z,55296.00
2022-10-18T13:24:03.125Z,56576.00
2022-10-18T13:25:03.118Z,54176.00
2022-10-18T13:26:03.148Z,57376.00
2022-10-18T13:27:18.083Z,58336.00
2022-10-18T13:28:03.129Z,58880.00
2022-10-18T13:29:03.237Z,57696.00
2022-10-18T13:30:03.127Z,53568.00
2022-10-18T13:31:03.119Z,53408.00
2022-10-18T13:32:03.159Z,52320.00
2022-10-18T13:33:03.119Z,50816.00
2022-10-18T13:34:03.116Z,51712.00
2022-10-18T13:35:03.142Z,52640.00
2022-10-18T13:36:03.130Z,52864.00
2022-10-18T13:37:03.135Z,52032.00
2022-10-18T13:38:03.138Z,52320.00
2022-10-18T13:39:03.133Z,53536.00
2022-10-18T13:40:03.151Z,54400.00
2022-10-18T13:41:03.132Z,55936.00
2022-10-18T13:42:03.140Z,56960.00
2022-10-18T13:43:03.142Z,55392.00
2022-10-18T13:44:03.160Z,51552.00
2022-10-18T13:45:03.162Z,51744.00
2022-10-18T13:46:03.142Z,53248.00
2022-10-18T13:47:03.167Z,54112.00
2022-10-18T13:48:03.147Z,54144.00
2022-10-18T13:49:03.153Z,53920.00
2022-10-18T13:50:03.488Z,52192.00
2022-10-18T13:51:01.667Z,51520.00
2022-10-18T13:52:03.646Z,51808.00
2022-10-18T13:53:03.658Z,50752.00
2022-10-18T13:54:03.678Z,52064.00
2022-10-18T13:55:01.697Z,48480.00
2022-10-18T13:56:03.178Z,47904.00
2022-10-18T13:57:01.711Z,49280.00
2022-10-18T13:58:01.710Z,48192.00
2022-10-18T13:59:14.274Z,49920.00
2022-10-18T14:00:02.995Z,50368.00
2022-10-18T14:01:03.758Z,50208.00
2022-10-18T14:02:01.794Z,48576.00
2022-10-18T14:03:03.970Z,46848.00
2022-10-18T14:04:03.190Z,45280.00
2022-10-18T14:05:16.888Z,46112.00
2022-10-18T14:06:01.774Z,46016.00
2022-10-18T14:07:03.661Z,44256.00
2022-10-18T14:08:03.090Z,44384.00
2022-10-18T14:09:09.741Z,44896.00
2022-10-18T14:10:04.096Z,45184.00
2022-10-18T14:11:03.913Z,44448.00
2022-10-18T14:12:01.829Z,43936.00
2022-10-18T14:13:02.821Z,41984.00
2022-10-18T14:14:01.829Z,41248.00
2022-10-18T14:15:03.667Z,41920.00
2022-10-18T14:16:01.865Z,42144.00
2022-10-18T14:17:03.697Z,42176.00
2022-10-18T14:18:01.873Z,41152.00
2022-10-18T14:19:03.683Z,39968.00
2022-10-18T14:20:02.974Z,39072.00
2022-10-18T14:21:21.845Z,39872.00
2022-10-18T14:22:01.887Z,38848.00
2022-10-18T14:23:01.891Z,36192.00
2022-10-18T14:24:03.680Z,36928.00
2022-10-18T14:25:03.683Z,36128.00
2022-10-18T14:26:03.694Z,33952.00
2022-10-18T14:27:03.718Z,34656.00
2022-10-18T14:28:03.711Z,33792.00
2022-10-18T14:29:03.758Z,32928.00
2022-10-18T14:30:03.685Z,30720.00
2022-10-18T14:31:03.730Z,30272.00
2022-10-18T14:32:03.713Z,28256.00
2022-10-18T14:33:03.703Z,31200.00
2022-10-18T14:34:03.701Z,31648.00
2022-10-18T14:35:33.049Z,28896.00
2022-10-18T14:36:03.693Z,29728.00
2022-10-18T14:37:03.708Z,26272.00
2022-10-18T14:38:02.053Z,24480.00
2022-10-18T14:39:01.992Z,22528.00
2022-10-18T14:40:02.045Z,22528.00
2022-10-18T14:41:01.999Z,22496.00
2022-10-18T14:42:03.715Z,24000.00
2022-10-18T14:43:02.018Z,23456.00
2022-10-18T14:44:02.022Z,21632.00
2022-10-18T14:45:02.082Z,13792.00
2022-10-18T14:46:03.218Z,4620.00
2022-10-18T14:47:02.033Z,3508.00
2022-10-18T14:48:02.051Z,3344.00
2022-10-18T14:49:03.727Z,3188.00
2022-10-18T14:50:02.128Z,3044.00
2022-10-18T14:51:03.743Z,2912.00
2022-10-18T14:52:02.055Z,2776.00
2022-10-18T14:53:02.077Z,2676.00
2022-10-18T14:54:02.150Z,2560.00
2022-10-18T14:55:03.723Z,2472.00
2022-10-18T14:56:03.734Z,2368.00
2022-10-18T14:57:03.717Z,2256.00
2022-10-18T14:58:03.715Z,2152.00
2022-10-18T14:59:03.782Z,2080.00
2022-10-18T15:00:03.756Z,2012.00
2022-10-18T15:01:03.804Z,1944.00
2022-10-18T15:02:02.756Z,1888.00
2022-10-18T15:03:03.746Z,1836.00
2022-10-18T15:04:03.733Z,1796.00
2022-10-18T15:05:03.743Z,1756.00
2022-10-18T15:06:03.729Z,1704.00
2022-10-18T15:07:03.751Z,1664.00
2022-10-18T15:08:03.104Z,1640.00
2022-10-18T15:09:02.104Z,1608.00
2022-10-18T15:10:03.754Z,1576.00
2022-10-18T15:11:02.097Z,1544.00
2022-10-18T15:12:03.770Z,1508.00
2022-10-18T15:13:09.803Z,1472.00
2022-10-18T15:14:02.120Z,1444.00
2022-10-18T15:15:02.126Z,1420.00
2022-10-18T15:16:03.113Z,1392.00
2022-10-18T15:17:03.757Z,1368.00
2022-10-18T15:18:02.114Z,1344.00
2022-10-18T15:19:02.109Z,1324.00
2022-10-18T15:20:05.211Z,1292.00
2022-10-18T15:21:02.132Z,1248.00
2022-10-18T15:23:03.763Z,1180.00
2022-10-18T15:24:02.134Z,1160.00
2022-10-18T15:25:02.116Z,1144.00
2022-10-18T15:26:02.117Z,1124.00
2022-10-18T15:27:03.803Z,1096.00
2022-10-18T15:28:03.786Z,1068.00
2022-10-18T15:29:06.125Z,1044.00
2022-10-18T15:30:03.787Z,1020.00
2022-10-18T15:31:02.129Z,1000.00
2022-10-18T15:32:02.118Z,980.00
2022-10-18T15:33:03.785Z,964.00
2022-10-18T15:34:03.768Z,948.00
2022-10-18T15:35:02.123Z,928.00
2022-10-18T15:36:03.759Z,912.00
2022-10-18T15:37:03.771Z,892.00
2022-10-18T15:38:03.798Z,872.00
2022-10-18T15:39:03.120Z,856.00
2022-10-18T15:40:02.114Z,840.00
2022-10-18T15:41:03.799Z,820.00
2022-10-18T15:42:02.132Z,808.00
2022-10-18T15:43:03.800Z,792.00
2022-10-18T15:44:03.133Z,772.00
2022-10-18T15:45:02.122Z,752.00
2022-10-18T15:46:05.340Z,728.00
2022-10-18T15:47:03.808Z,712.00
2022-10-18T15:48:02.114Z,696.00
2022-10-18T15:49:03.131Z,676.00
2022-10-18T15:50:03.782Z,660.00
2022-10-18T15:51:03.109Z,640.00
2022-10-18T15:52:03.824Z,620.00
2022-10-18T15:53:03.130Z,604.00
2022-10-18T15:54:03.799Z,584.00
2022-10-18T15:55:02.133Z,568.00
2022-10-18T15:56:03.799Z,552.00
2022-10-18T15:57:03.810Z,536.00
2022-10-18T15:58:03.775Z,516.00
2022-10-18T15:59:03.800Z,500.00
2022-10-18T16:00:03.801Z,484.00
2022-10-18T16:12:14.540Z,296.00
2022-10-18T16:13:14.567Z,276.00
2022-10-18T16:14:14.497Z,264.00
2022-10-18T16:15:12.895Z,252.00
2022-10-18T16:16:14.498Z,236.00
2022-10-18T16:17:14.524Z,220.00
2022-10-18T16:18:14.502Z,204.00
2022-10-18T16:19:14.504Z,192.00
2022-10-18T16:20:14.504Z,180.00
2022-10-18T16:21:14.503Z,164.00
2022-10-18T16:22:14.564Z,156.00
2022-10-18T16:23:12.873Z,144.00
2022-10-18T16:24:14.519Z,132.00
2022-10-18T16:25:14.505Z,124.00
2022-10-18T16:26:14.540Z,116.00
2022-10-18T16:27:14.523Z,104.00
2022-10-18T16:28:13.865Z,92.00
2022-10-18T16:29:14.666Z,88.00
2022-10-18T16:30:12.852Z,80.00
2022-10-18T16:31:12.901Z,72.00
2022-10-18T16:32:14.534Z,64.00
2022-10-18T16:33:14.143Z,56.00
2022-10-18T16:34:12.845Z,52.00
2022-10-18T16:35:12.853Z,44.00
2022-10-18T16:36:12.844Z,40.00
2022-10-18T16:37:14.532Z,32.00
2022-10-18T16:38:14.031Z,32.00
2022-10-18T16:39:12.849Z,28.00
2022-10-18T16:40:14.080Z,20.00
2022-10-18T16:41:12.864Z,16.00
2022-10-18T16:42:12.830Z,12.00